Главная страница
METAR-TAF:

METAR-TAF

Аэропорты :

Король Абдул-Азиз

Джидда, Саудовская Аравия

широта: 21-42N, долгота: 039-11E, высота над уровнем моря: 15 м

Текущие метеонаблюдения

Эта сводка был подготовлена 57 минут назад, в 11:00 UTC
Ветер 8 Узел от западный-юго-западный
Температура 35°C
Влажность 37%
Давление 1011 hPa
Видимость 10 км и более
Отдельные облака на высоте 3500 фута

METAR: OEJN 211100Z 25008KT 9999 SCT035 35/18 Q1011 NOSIG

Время: 14:57 (11:57 UTC)

Прогноз

Эта сводка был подготовлена 57 минут назад, в 11:00 UTC
Прогноз действительный с 21-го 12 UTC до 22-го 18 UTC
Ветер 12 Узел от западно-северо-западный
Видимость 10 км и более
Отдельные облака на высоте 4000 фута
изменения
С 21-го 18 UTC до 21-го 20 UTC
Ветер 3 Узел переменных направлений

TAF: OEJN 211100Z 2112/2218 30012KT 9999 SCT040 BECMG 2118/2120 VRB03KT

Метеонаблюдения и прогнозы для более 4000 аэропортов (сводки METAR и TAF).

Имеющиеся станции представлены на карте желтыми и красными точками.

Чтобы увидеть название станции, наведите на нее мышь.

Затем щелкните, чтобы увидеть метеонаблюдения и метеопрогнозы.

Управление картой: чтобы увеличить масштаб, щелкните зеленые кнопки с черным крестиком; чтобы уменьшить масштаб, щелкните зеленую кнопку с тире; для просмотра соседних карт щелкайте зеленые стрелки.


METAR-TAF: